Time;durP1;ratioP1;P1;durP2;ratioP2;P2;SDS_P1;SDS_P2;PMS_P1;PMS_P2;Temp;Humidity;BMP_temperature;BMP_pressure;BME280_temperature;BME280_humidity;BME280_pressure;Samples;Min_cycle;Max_cycle;Signal;HPM_P1;HPM_P2
2021/08/24 00:02:22;;;;;;;5.55;3.75;;;;;;;17.93;68.38;102921.88;4978180;28;20042;-49
2021/08/24 00:04:47;;;;;;;8.63;4.20;;;;;;;17.81;68.04;102914.66;4984516;28;20433;-48
2021/08/24 00:07:13;;;;;;;7.22;4.10;;;;;;;17.74;68.34;102915.47;4978556;28;20033;-47
2021/08/24 00:09:38;;;;;;;10.55;4.25;;;;;;;17.84;68.20;102919.13;4983666;28;20022;-47
2021/08/24 00:12:05;;;;;;;7.15;4.03;;;;;;;17.85;68.38;102920.91;4984953;28;20036;-47
2021/08/24 00:14:33;;;;;;;9.23;4.40;;;;;;;17.77;68.16;102918.13;4984039;28;20040;-49
2021/08/24 00:16:59;;;;;;;8.25;4.47;;;;;;;17.70;68.75;102920.63;4981600;28;20049;-46
2021/08/24 00:19:25;;;;;;;8.68;4.20;;;;;;;17.77;68.16;102914.59;4987160;28;20253;-49
2021/08/24 00:21:51;;;;;;;7.47;4.43;;;;;;;17.67;68.55;102913.56;4983754;28;20040;-47
2021/08/24 00:24:16;;;;;;;6.10;4.43;;;;;;;17.58;68.80;102920.38;4981390;28;20456;-49
2021/08/24 00:26:42;;;;;;;7.90;4.15;;;;;;;17.69;68.38;102911.81;4985614;28;20538;-48
2021/08/24 00:29:07;;;;;;;8.57;4.50;;;;;;;17.57;68.66;102914.22;4985090;28;20088;-49
2021/08/24 00:31:33;;;;;;;9.45;4.50;;;;;;;17.61;68.78;102917.84;4981278;28;20087;-53
2021/08/24 00:33:58;;;;;;;9.98;4.70;;;;;;;17.58;68.74;102920.38;4984513;28;20194;-47
2021/08/24 00:36:23;;;;;;;7.80;4.55;;;;;;;17.50;68.74;102911.47;4984744;28;20628;-47
2021/08/24 00:38:49;;;;;;;7.05;4.43;;;;;;;17.53;68.87;102917.69;4981977;28;20105;-47
2021/08/24 00:41:16;;;;;;;8.10;4.90;;;;;;;17.30;69.07;102921.66;4980664;28;20128;-48
2021/08/24 00:43:43;;;;;;;6.90;4.60;;;;;;;17.54;68.64;102918.56;4983923;28;20066;-48
2021/08/24 00:46:21;;;;;;;7.90;4.30;;;;;;;17.47;68.56;102922.84;4985039;28;20045;-48
2021/08/24 00:48:47;;;;;;;8.27;4.47;;;;;;;17.55;68.19;102923.88;4983735;28;20407;-49
2021/08/24 00:51:14;;;;;;;7.75;4.55;;;;;;;17.62;67.91;102922.28;4979973;28;20465;-47
2021/08/24 00:53:39;;;;;;;11.65;4.68;;;;;;;17.46;68.31;102923.72;5002788;28;20065;-47
2021/08/24 00:56:06;;;;;;;9.05;4.80;;;;;;;17.50;68.36;102924.66;4981157;28;20022;-46
2021/08/24 00:58:32;;;;;;;9.75;4.60;;;;;;;17.48;68.40;102922.00;4982499;28;20045;-47
2021/08/24 01:00:57;;;;;;;9.02;4.72;;;;;;;17.37;68.75;102926.19;4981440;28;20483;-46
2021/08/24 01:03:26;;;;;;;7.35;4.70;;;;;;;17.37;68.73;102932.38;4983434;28;20037;-51
2021/08/24 01:05:54;;;;;;;7.05;4.80;;;;;;;17.35;68.67;102925.28;4980017;28;20497;-47
2021/08/24 01:08:25;;;;;;;7.22;4.60;;;;;;;17.34;68.89;102931.41;4981183;28;20653;-46
2021/08/24 01:11:02;;;;;;;8.13;4.38;;;;;;;17.31;68.92;102926.97;4982893;28;20497;-50
2021/08/24 01:13:34;;;;;;;8.15;4.10;;;;;;;17.13;69.12;102939.81;4982567;28;20132;-49
2021/08/24 01:16:04;;;;;;;6.43;4.18;;;;;;;17.15;68.98;102931.91;4979827;28;20133;-51
2021/08/24 01:18:33;;;;;;;8.05;4.22;;;;;;;17.23;69.00;102922.41;4980478;28;20037;-47
2021/08/24 01:21:33;;;;;;;7.25;3.92;;;;;;;17.16;68.94;102933.69;4985783;28;20099;-47
2021/08/24 01:24:17;;;;;;;9.13;4.15;;;;;;;17.26;68.40;102933.88;4999391;28;20066;-47
2021/08/24 01:26:46;;;;;;;7.20;3.90;;;;;;;17.19;68.75;102941.69;4998756;28;20080;-46
2021/08/24 01:29:29;;;;;;;7.07;4.13;;;;;;;17.16;68.65;102938.97;4982126;28;20030;-47
2021/08/24 01:32:12;;;;;;;8.20;4.40;;;;;;;17.10;68.86;102937.09;4981515;28;20042;-50
2021/08/24 01:34:55;;;;;;;11.35;5.00;;;;;;;16.93;69.86;102941.16;4981730;28;20593;-48
2021/08/24 01:37:58;;;;;;;9.15;5.18;;;;;;;16.99;69.38;102943.91;4980098;28;20068;-46
2021/08/24 01:40:39;;;;;;;6.60;4.90;;;;;;;16.89;69.68;102941.97;4983273;28;20046;-46
2021/08/24 01:43:07;;;;;;;8.27;5.20;;;;;;;16.73;70.65;102939.84;4979927;28;20445;-47
2021/08/24 01:45:39;;;;;;;9.52;5.65;;;;;;;16.67;70.79;102945.00;4984530;28;20092;-48
2021/08/24 01:48:08;;;;;;;11.70;5.82;;;;;;;16.60;71.01;102942.22;4973057;28;20084;-49
2021/08/24 01:50:39;;;;;;;9.18;6.20;;;;;;;16.47;71.62;102947.16;4977785;28;20286;-48
2021/08/24 01:53:24;;;;;;;10.02;6.07;;;;;;;16.47;71.99;102942.78;4984101;28;20141;-47
2021/08/24 01:55:52;;;;;;;10.88;6.38;;;;;;;16.49;71.88;102948.09;4977105;28;20030;-48
2021/08/24 01:58:24;;;;;;;10.48;6.35;;;;;;;16.47;71.97;102953.31;4979370;28;20026;-48
2021/08/24 02:00:53;;;;;;;10.85;6.75;;;;;;;16.40;72.50;102954.06;4979538;28;20109;-48
2021/08/24 02:03:27;;;;;;;12.48;7.40;;;;;;;16.29;73.09;102962.53;4979246;28;20227;-46
2021/08/24 02:05:57;;;;;;;11.87;7.53;;;;;;;16.33;73.01;102948.63;4994379;28;20033;-49
2021/08/24 02:08:25;;;;;;;14.70;8.50;;;;;;;16.28;73.12;102948.53;4980051;28;20312;-51
2021/08/24 02:10:55;;;;;;;12.43;8.20;;;;;;;16.25;73.40;102956.31;4978876;28;20871;-49
2021/08/24 02:13:22;;;;;;;11.88;7.70;;;;;;;16.23;73.90;102953.66;4980340;28;20497;-49
2021/08/24 02:15:50;;;;;;;13.68;8.40;;;;;;;16.10;74.37;102956.84;4988914;28;20026;-48
2021/08/24 02:18:19;;;;;;;14.60;9.23;;;;;;;16.09;74.65;102952.47;4980998;28;20160;-48
2021/08/24 02:20:59;;;;;;;16.33;9.13;;;;;;;16.17;74.39;102955.25;4981233;28;20025;-47
2021/08/24 02:23:26;;;;;;;17.45;8.98;;;;;;;16.18;74.22;102951.78;4985192;28;20062;-50
2021/08/24 02:25:56;;;;;;;15.48;8.35;;;;;;;16.15;74.19;102952.59;4986597;28;20100;-46
2021/08/24 02:28:26;;;;;;;16.42;9.20;;;;;;;16.12;74.60;102956.88;4982052;28;20603;-48
2021/08/24 02:30:58;;;;;;;17.20;9.95;;;;;;;16.08;74.87;102965.56;4983738;28;20427;-47
2021/08/24 02:33:24;;;;;;;18.55;9.98;;;;;;;16.04;74.99;102971.63;5003788;28;20033;-47
2021/08/24 02:35:57;;;;;;;16.08;9.57;;;;;;;16.04;75.05;102964.59;5005724;28;20096;-47
2021/08/24 02:38:26;;;;;;;16.75;10.30;;;;;;;16.05;75.44;102969.00;4981704;28;20033;-48
2021/08/24 02:41:00;;;;;;;19.38;10.30;;;;;;;16.06;75.37;102969.91;4987571;28;20132;-46
2021/08/24 02:43:25;;;;;;;;;;;;;;;16.09;75.20;102968.25;4984740;28;20661;-46
2021/08/24 02:46:26;;;;;;;18.33;9.80;;;;;;;16.10;75.39;102972.63;4986222;28;19967;-50
2021/08/24 02:48:58;;;;;;;18.13;10.27;;;;;;;16.08;75.33;102974.34;4985805;28;20045;-49
2021/08/24 02:51:24;;;;;;;22.95;11.07;;;;;;;16.10;75.63;102969.16;4982730;28;20030;-47
2021/08/24 02:54:13;;;;;;;24.00;11.10;;;;;;;15.97;75.99;102977.59;4987315;28;20276;-47
2021/08/24 02:56:39;;;;;;;22.05;12.18;;;;;;;15.98;76.50;102974.09;4983155;28;20037;-47
2021/08/24 02:59:04;;;;;;;21.10;11.90;;;;;;;16.11;76.04;102970.91;4981214;28;20034;-50
2021/08/24 03:01:30;;;;;;;22.63;12.10;;;;;;;16.16;76.06;102972.78;4986454;28;20288;-47
2021/08/24 03:03:55;;;;;;;23.25;12.43;;;;;;;16.17;76.00;102966.66;4984812;28;20524;-51
2021/08/24 03:06:21;;;;;;;24.92;12.57;;;;;;;16.13;76.40;102970.09;4989937;28;20460;-47
2021/08/24 03:08:47;;;;;;;21.42;12.27;;;;;;;16.22;76.14;102972.91;4984296;28;20030;-48
2021/08/24 03:11:15;;;;;;;30.58;12.77;;;;;;;16.11;76.06;102968.25;4980073;28;20025;-47
2021/08/24 03:13:58;;;;;;;25.75;12.45;;;;;;;16.10;76.57;102971.78;4982780;28;20077;-47
2021/08/24 03:16:48;;;;;;;24.95;13.05;;;;;;;15.97;77.48;102977.59;4998582;28;21533;-49
2021/08/24 03:19:17;;;;;;;25.98;12.73;;;;;;;16.17;76.80;102968.41;4982921;28;20038;-47
2021/08/24 03:21:43;;;;;;;25.50;13.43;;;;;;;16.12;77.02;102972.69;4982959;28;20136;-48
2021/08/24 03:24:12;;;;;;;25.73;13.27;;;;;;;16.23;76.47;102973.81;4981466;28;20678;-50
2021/08/24 03:26:40;;;;;;;25.50;13.45;;;;;;;16.14;77.50;102973.63;4983252;28;20144;-48
2021/08/24 03:29:11;;;;;;;26.90;13.95;;;;;;;16.11;77.08;102977.03;4980061;28;20025;-50
2021/08/24 03:31:38;;;;;;;28.15;14.10;;;;;;;16.16;77.54;102970.16;4987205;28;20034;-52
2021/08/24 03:34:03;;;;;;;27.45;13.95;;;;;;;16.20;77.11;102971.13;4982054;28;20034;-47
2021/08/24 03:36:29;;;;;;;28.63;13.57;;;;;;;16.20;76.57;102971.13;4986220;28;20072;-48
2021/08/24 03:38:54;;;;;;;28.58;14.50;;;;;;;16.16;77.41;102978.03;4985614;28;20026;-50
2021/08/24 03:41:20;;;;;;;28.02;13.13;;;;;;;16.16;77.23;102974.56;4989438;28;20054;-51
2021/08/24 03:43:45;;;;;;;25.38;13.57;;;;;;;16.24;76.99;102978.22;4984394;28;20702;-47
2021/08/24 03:46:10;;;;;;;27.48;14.48;;;;;;;16.21;76.92;102970.28;4986106;28;20034;-47
2021/08/24 03:48:36;;;;;;;32.17;15.15;;;;;;;16.16;77.87;102969.28;4984352;28;20482;-47
2021/08/24 03:51:01;;;;;;;30.67;15.85;;;;;;;16.21;77.57;102967.66;4983104;28;20026;-47
2021/08/24 03:53:27;;;;;;;30.38;14.80;;;;;;;16.20;77.40;102972.03;4986035;28;20073;-49
2021/08/24 03:55:52;;;;;;;30.00;14.70;;;;;;;16.18;77.59;102968.44;4986690;28;20485;-49
2021/08/24 03:58:17;;;;;;;37.97;16.05;;;;;;;16.15;77.72;102965.75;4982897;28;20502;-47
2021/08/24 04:00:47;;;;;;;33.58;15.63;;;;;;;16.08;78.35;102974.34;4982901;28;20437;-50
2021/08/24 04:03:12;;;;;;;29.08;15.13;;;;;;;16.16;78.31;102964.03;4996963;28;20091;-49
2021/08/24 04:05:38;;;;;;;28.30;15.40;;;;;;;16.17;77.91;102978.94;4982176;28;20481;-50
2021/08/24 04:08:04;;;;;;;31.25;15.35;;;;;;;16.14;78.15;102971.88;4982374;28;20026;-48
2021/08/24 04:10:29;;;;;;;32.42;15.57;;;;;;;16.23;78.19;102976.44;4980887;28;20061;-50
2021/08/24 04:12:54;;;;;;;34.80;16.58;;;;;;;16.14;78.54;102974.50;4981904;28;20129;-48
2021/08/24 04:15:20;;;;;;;32.50;15.75;;;;;;;16.28;77.93;102982.75;4986635;28;20034;-54
2021/08/24 04:17:45;;;;;;;32.65;16.50;;;;;;;16.14;78.65;102985.03;4982002;28;20223;-48
2021/08/24 04:20:13;;;;;;;31.20;15.75;;;;;;;16.29;77.91;102984.50;4985481;28;20033;-49
2021/08/24 04:22:41;;;;;;;28.35;15.38;;;;;;;16.32;77.92;102995.09;4982215;28;20036;-50
2021/08/24 04:25:07;;;;;;;32.05;15.55;;;;;;;16.29;78.04;102988.84;4985762;28;20357;-50
2021/08/24 04:27:32;;;;;;;30.25;15.43;;;;;;;16.25;78.30;102987.91;4980783;28;20034;-50
2021/08/24 04:29:57;;;;;;;31.73;15.13;;;;;;;16.32;77.99;102986.31;4989362;28;20021;-48
2021/08/24 04:32:25;;;;;;;28.25;13.68;;;;;;;16.34;77.34;102993.41;4977098;28;20088;-46
2021/08/24 04:34:51;;;;;;;31.88;15.05;;;;;;;16.27;77.88;102987.97;4978624;28;20378;-48
2021/08/24 04:37:16;;;;;;;34.20;15.77;;;;;;;16.19;78.53;102993.03;4981860;28;21074;-47
2021/08/24 04:39:42;;;;;;;37.55;15.82;;;;;;;16.21;78.31;103001.88;4984291;28;20129;-49
2021/08/24 04:42:07;;;;;;;29.52;15.32;;;;;;;16.29;77.69;102995.00;4985132;28;20050;-47
2021/08/24 04:44:32;;;;;;;29.75;13.80;;;;;;;16.26;77.67;103001.97;4984801;28;20046;-48
2021/08/24 04:46:58;;;;;;;32.00;15.52;;;;;;;16.15;78.56;103004.34;4983467;28;20462;-49
2021/08/24 04:49:23;;;;;;;27.63;15.13;;;;;;;16.28;78.04;103001.16;4980650;28;20623;-48
2021/08/24 04:51:49;;;;;;;31.10;15.50;;;;;;;16.15;78.36;103012.25;4996615;28;20205;-48
2021/08/24 04:54:14;;;;;;;32.90;15.05;;;;;;;16.28;78.15;103009.06;4985621;28;20058;-51
2021/08/24 04:56:40;;;;;;;26.02;14.23;;;;;;;16.28;78.32;103013.44;4999176;28;20034;-47
2021/08/24 04:59:05;;;;;;;28.58;14.95;;;;;;;16.29;78.09;103007.28;4986003;28;20017;-47
2021/08/24 05:01:30;;;;;;;25.45;14.07;;;;;;;16.40;77.75;103005.81;4978913;28;20084;-46
2021/08/24 05:03:56;;;;;;;28.00;14.15;;;;;;;16.48;77.48;103005.13;4978690;28;20037;-47
2021/08/24 05:06:21;;;;;;;24.50;13.70;;;;;;;16.49;77.69;103008.66;4980790;28;20112;-48
2021/08/24 05:08:46;;;;;;;25.77;13.35;;;;;;;16.52;77.66;103006.09;4980384;28;20542;-48
2021/08/24 05:11:12;;;;;;;26.65;13.60;;;;;;;16.53;76.83;103010.47;4978819;28;20574;-47
2021/08/24 05:13:37;;;;;;;24.60;13.75;;;;;;;16.40;77.98;103009.34;4985822;28;20037;-48
2021/08/24 05:16:08;;;;;;;28.58;14.38;;;;;;;16.56;77.30;103005.31;4982925;28;20025;-47
2021/08/24 05:18:33;;;;;;;26.92;13.05;;;;;;;16.54;77.25;103013.16;4976636;28;20112;-46
2021/08/24 05:21:07;;;;;;;22.23;12.48;;;;;;;16.57;77.77;103005.34;4981619;28;20026;-50
2021/08/24 05:23:33;;;;;;;24.30;13.02;;;;;;;16.69;77.13;103006.50;4979807;28;20034;-48
2021/08/24 05:25:59;;;;;;;21.60;11.82;;;;;;;16.78;77.06;102998.78;4986092;28;20036;-51
2021/08/24 05:28:25;;;;;;;24.63;12.48;;;;;;;16.79;76.87;103009.38;4982920;28;20068;-48
2021/08/24 05:30:50;;;;;;;19.67;11.18;;;;;;;16.90;76.62;103009.59;4997802;28;20423;-47
2021/08/24 05:33:16;;;;;;;25.80;12.05;;;;;;;16.91;76.47;103007.00;4982825;28;20068;-47
2021/08/24 05:35:41;;;;;;;24.00;11.70;;;;;;;16.83;77.14;103007.69;4982099;28;20061;-50
2021/08/24 05:38:06;;;;;;;21.83;11.90;;;;;;;16.91;76.63;103003.47;4984946;28;20030;-49
2021/08/24 05:40:32;;;;;;;21.70;11.57;;;;;;;17.05;76.69;103012.56;4988041;28;20045;-51
2021/08/24 05:42:57;;;;;;;18.98;12.15;;;;;;;16.97;76.72;103011.50;4978928;28;20052;-48
2021/08/24 05:45:23;;;;;;;19.80;11.18;;;;;;;17.07;76.58;103009.97;4978914;28;20959;-50
2021/08/24 05:47:48;;;;;;;21.08;11.43;;;;;;;17.18;76.28;103014.59;4984013;28;20030;-48
2021/08/24 05:50:13;;;;;;;19.23;10.85;;;;;;;17.22;76.00;103013.78;4979482;28;20133;-47
2021/08/24 05:52:39;;;;;;;20.90;10.32;;;;;;;17.17;76.15;103011.91;4984941;28;20164;-50
2021/08/24 05:55:05;;;;;;;19.13;10.65;;;;;;;17.46;75.46;103018.63;4982747;28;20296;-50
2021/08/24 05:57:31;;;;;;;21.95;10.45;;;;;;;17.35;75.59;103025.47;4984043;28;20640;-51
2021/08/24 05:59:56;;;;;;;16.13;9.82;;;;;;;17.44;75.50;103023.03;4982833;28;20188;-50
2021/08/24 06:02:22;;;;;;;20.95;10.70;;;;;;;17.53;75.30;103031.09;4979843;28;20128;-48
2021/08/24 06:04:47;;;;;;;17.13;9.40;;;;;;;17.63;75.06;103030.44;4983334;28;20029;-52
2021/08/24 06:07:14;;;;;;;17.60;9.63;;;;;;;17.63;74.75;103029.53;4981223;28;20132;-51
2021/08/24 06:09:39;;;;;;;14.90;9.30;;;;;;;17.86;74.43;103029.97;4981076;28;20023;-50
2021/08/24 06:12:05;;;;;;;14.43;8.73;;;;;;;18.25;73.60;103034.16;4984392;28;20569;-47
2021/08/24 06:14:30;;;;;;;14.90;7.40;;;;;;;19.17;71.05;103039.00;4985658;28;20029;-51
2021/08/24 06:16:59;;;;;;;13.43;6.65;;;;;;;20.14;67.65;103032.09;4980359;28;20201;-48
2021/08/24 06:19:25;;;;;;;14.05;6.35;;;;;;;21.15;63.61;103028.38;4980502;28;20092;-47
2021/08/24 06:21:51;;;;;;;11.55;5.72;;;;;;;21.81;60.85;103032.06;4982318;28;20038;-48
2021/08/24 06:24:16;;;;;;;9.38;5.15;;;;;;;22.89;58.77;103027.53;4983592;28;20098;-46
2021/08/24 06:26:42;;;;;;;9.82;4.72;;;;;;;23.28;55.98;103034.47;4984791;28;20125;-47
2021/08/24 06:29:08;;;;;;;8.85;4.57;;;;;;;23.95;55.02;103017.19;4982908;28;20026;-47
2021/08/24 06:31:35;;;;;;;11.27;4.85;;;;;;;22.97;56.82;103023.09;4984682;28;20041;-46
2021/08/24 06:34:00;;;;;;;8.27;4.40;;;;;;;23.73;54.83;103027.13;4978514;28;20029;-51
2021/08/24 06:36:26;;;;;;;9.45;4.30;;;;;;;23.64;54.72;103033.41;4985518;28;20064;-49
2021/08/24 06:38:52;;;;;;;5.88;3.70;;;;;;;24.41;52.92;103026.56;4981692;28;20038;-49
2021/08/24 06:41:18;;;;;;;7.85;3.92;;;;;;;24.08;52.98;103024.19;4981846;28;20041;-46
2021/08/24 06:43:44;;;;;;;8.93;3.80;;;;;;;24.59;51.18;103030.81;4983026;28;20023;-46
2021/08/24 06:46:10;;;;;;;6.40;3.53;;;;;;;24.70;51.24;103028.06;4980825;28;20034;-51
2021/08/24 06:48:36;;;;;;;7.15;3.67;;;;;;;25.43;49.68;103031.56;4979318;28;20026;-50
2021/08/24 06:51:02;;;;;;;6.88;3.30;;;;;;;25.48;49.02;103035.97;4979989;28;20041;-47
2021/08/24 06:53:29;;;;;;;6.05;3.28;;;;;;;25.27;50.22;103034.47;4984073;28;20509;-48
2021/08/24 06:55:54;;;;;;;7.30;3.50;;;;;;;24.60;50.90;103043.25;4977276;28;20112;-46
2021/08/24 06:58:20;;;;;;;6.10;3.28;;;;;;;25.39;49.82;103039.63;4983359;28;20490;-47
2021/08/24 07:00:47;;;;;;;7.40;3.60;;;;;;;25.82;48.29;103037.25;4983009;28;20030;-46
2021/08/24 07:03:13;;;;;;;13.95;3.40;;;;;;;25.33;50.00;103045.06;4990377;28;20556;-47
2021/08/24 07:05:42;;;;;;;8.10;3.03;;;;;;;25.88;48.01;103044.28;4986802;28;20040;-48
2021/08/24 07:08:07;;;;;;;6.78;3.35;;;;;;;25.82;47.86;103038.13;4981794;28;20037;-49
2021/08/24 07:10:33;;;;;;;6.75;3.28;;;;;;;25.56;47.88;103042.06;4985803;28;20038;-48
2021/08/24 07:12:58;;;;;;;5.32;3.08;;;;;;;25.44;48.17;103044.00;4986358;28;20029;-50
2021/08/24 07:15:24;;;;;;;8.15;3.28;;;;;;;25.43;48.52;103050.25;4983714;28;20040;-50
2021/08/24 07:17:55;;;;;;;8.30;3.42;;;;;;;25.37;48.12;103057.50;4985223;28;20033;-47
2021/08/24 07:20:22;;;;;;;6.68;2.92;;;;;;;25.76;47.46;103040.91;4986167;28;20422;-47
2021/08/24 07:22:48;;;;;;;6.50;2.88;;;;;;;25.38;47.90;103044.09;4988022;28;20088;-52
2021/08/24 07:25:16;;;;;;;6.95;3.08;;;;;;;25.84;47.63;103039.00;4984345;28;20322;-50
2021/08/24 07:27:42;;;;;;;6.43;2.92;;;;;;;26.13;46.50;103041.19;4981341;28;20296;-47
2021/08/24 07:30:08;;;;;;;6.53;2.80;;;;;;;25.44;47.88;103046.69;4984452;28;20033;-50
2021/08/24 07:32:33;;;;;;;7.00;2.80;;;;;;;25.51;48.07;103046.59;4982913;28;20030;-49
2021/08/24 07:34:59;;;;;;;8.65;3.05;;;;;;;25.59;47.49;103044.75;4984988;28;20033;-47
2021/08/24 07:37:24;;;;;;;5.53;2.88;;;;;;;25.57;49.48;103051.88;4983687;28;20034;-49
2021/08/24 07:39:50;;;;;;;8.88;2.90;;;;;;;25.37;49.05;103049.47;4983253;28;20422;-47
2021/08/24 07:42:15;;;;;;;6.85;2.95;;;;;;;25.60;47.61;103055.41;4984700;28;20112;-49
2021/08/24 07:44:41;;;;;;;4.95;2.83;;;;;;;25.98;46.73;103046.81;4981713;28;20057;-48
2021/08/24 07:47:06;;;;;;;7.13;2.75;;;;;;;26.13;46.59;103056.34;4981580;28;20038;-48
2021/08/24 07:49:36;;;;;;;6.13;2.92;;;;;;;24.79;49.34;103051.94;4987158;28;20400;-47
2021/08/24 07:52:06;;;;;;;6.60;2.75;;;;;;;24.64;50.51;103051.19;4982005;28;20075;-48
2021/08/24 07:54:32;;;;;;;7.07;3.05;;;;;;;24.31;50.62;103050.66;4987436;28;20096;-50
2021/08/24 07:56:57;;;;;;;6.68;3.38;;;;;;;23.39;53.47;103058.38;4981839;28;20058;-47
2021/08/24 07:59:23;;;;;;;8.77;3.47;;;;;;;23.75;52.64;103055.53;4985664;28;20026;-50
2021/08/24 08:01:48;;;;;;;12.00;3.10;;;;;;;24.37;51.93;103056.84;4983379;28;20061;-48
2021/08/24 08:04:14;;;;;;;6.65;3.00;;;;;;;24.57;50.68;103062.88;4981219;28;20532;-46
2021/08/24 08:06:39;;;;;;;8.00;3.05;;;;;;;24.26;52.28;103056.06;4979168;28;20032;-50
2021/08/24 08:09:06;;;;;;;5.35;3.13;;;;;;;23.99;52.18;103062.44;4982757;28;20064;-49
2021/08/24 08:11:32;;;;;;;8.10;3.50;;;;;;;23.51;53.61;103063.66;4988750;28;20026;-48
2021/08/24 08:13:59;;;;;;;8.63;3.80;;;;;;;23.28;53.80;103070.84;4996519;28;20473;-49
2021/08/24 08:16:25;;;;;;;9.13;3.15;;;;;;;23.05;54.60;103066.50;4989159;28;20025;-48
2021/08/24 08:18:51;;;;;;;5.95;3.42;;;;;;;22.94;55.36;103068.31;4979798;28;20061;-49
2021/08/24 08:21:17;;;;;;;6.97;3.40;;;;;;;22.80;55.79;103066.59;4979723;28;20034;-48
2021/08/24 08:23:43;;;;;;;10.32;3.50;;;;;;;22.81;55.59;103071.03;4979462;28;20551;-48
2021/08/24 08:26:08;;;;;;;6.72;3.20;;;;;;;22.63;55.59;103072.78;4986857;28;20056;-47
2021/08/24 08:28:34;;;;;;;5.90;3.30;;;;;;;22.01;56.38;103069.31;4978082;28;20143;-50
2021/08/24 08:31:01;;;;;;;10.15;3.55;;;;;;;22.34;56.07;103063.06;4986478;28;20567;-47
2021/08/24 08:33:27;;;;;;;6.30;3.13;;;;;;;22.54;55.99;103066.63;4980729;28;20042;-50
2021/08/24 08:35:52;;;;;;;5.50;3.05;;;;;;;22.98;55.27;103064.78;4981590;28;20454;-50
2021/08/24 08:38:18;;;;;;;6.32;2.88;;;;;;;23.22;52.48;103071.78;4980368;28;20056;-51
2021/08/24 08:40:52;;;;;;;6.15;2.88;;;;;;;22.98;52.12;103066.53;4980123;28;20045;-47
2021/08/24 08:43:56;;;;;;;4.40;3.13;;;;;;;22.93;51.62;103068.34;4981163;28;20201;-46
2021/08/24 08:46:32;;;;;;;10.68;2.85;;;;;;;23.29;51.44;103070.84;4978126;28;20480;-49
2021/08/24 08:49:25;;;;;;;5.70;2.88;;;;;;;23.13;53.03;103068.25;4982889;28;20033;-47
2021/08/24 08:52:03;;;;;;;5.75;3.25;;;;;;;23.30;53.05;103064.63;4984154;28;20060;-47
2021/08/24 08:54:40;;;;;;;7.30;3.17;;;;;;;23.34;52.93;103068.16;4979591;28;20030;-50
2021/08/24 08:57:13;;;;;;;7.10;3.35;;;;;;;22.78;54.43;103060.38;4980325;28;20176;-49
2021/08/24 08:59:54;;;;;;;6.87;3.57;;;;;;;22.76;55.24;103067.47;4983801;28;20119;-49
2021/08/24 09:02:29;;;;;;;7.47;3.10;;;;;;;23.38;53.67;103062.81;4985260;28;20037;-50
2021/08/24 09:04:56;;;;;;;6.70;3.10;;;;;;;23.76;53.24;103059.06;4979371;28;20033;-46
2021/08/24 09:07:40;;;;;;;6.80;3.20;;;;;;;22.90;53.02;103069.22;4976551;28;20500;-49
2021/08/24 09:10:06;;;;;;;;;;;;;;;23.23;52.09;103073.56;4981123;28;20037;-47
2021/08/24 09:12:34;;;;;;;5.68;2.88;;;;;;;22.86;52.14;103069.25;4983259;28;20172;-47
2021/08/24 09:15:02;;;;;;;5.88;2.75;;;;;;;23.35;50.60;103076.16;4990753;28;20081;-48
2021/08/24 09:17:32;;;;;;;6.53;2.92;;;;;;;22.62;52.43;103076.38;4980840;28;20564;-51
2021/08/24 09:20:02;;;;;;;6.63;3.00;;;;;;;22.98;51.90;103078.06;4982717;28;20189;-51
2021/08/24 09:22:27;;;;;;;7.68;2.80;;;;;;;23.09;51.60;103078.03;4986309;28;20473;-47
2021/08/24 09:24:53;;;;;;;5.93;2.67;;;;;;;23.13;51.96;103070.91;4985801;28;20029;-48
2021/08/24 09:27:22;;;;;;;5.78;2.60;;;;;;;23.04;51.14;103079.81;4984334;28;20496;-48
2021/08/24 09:29:49;;;;;;;6.65;2.80;;;;;;;23.18;50.87;103077.97;4984365;28;20474;-50
2021/08/24 09:32:20;;;;;;;4.90;2.83;;;;;;;22.98;51.73;103069.22;4981051;28;20148;-48
2021/08/24 09:34:47;;;;;;;5.47;2.50;;;;;;;22.87;51.71;103074.53;4982154;28;20552;-50
2021/08/24 09:37:16;;;;;;;7.55;2.80;;;;;;;22.65;51.00;103079.00;4988691;28;20037;-47
2021/08/24 09:40:00;;;;;;;6.47;2.50;;;;;;;22.49;52.03;103077.25;4985181;28;20065;-47
2021/08/24 09:42:35;;;;;;;6.95;2.67;;;;;;;22.45;52.42;103070.16;4984282;28;20296;-49
2021/08/24 09:45:26;;;;;;;6.82;2.72;;;;;;;22.56;51.78;103064.84;4984102;28;20502;-51
2021/08/24 09:48:05;;;;;;;8.35;2.50;;;;;;;22.96;49.86;103071.88;4981471;28;20036;-47
2021/08/24 09:50:34;;;;;;;3.95;2.40;;;;;;;22.94;50.51;103070.97;4981654;28;20025;-51
2021/08/24 09:53:00;;;;;;;5.22;2.63;;;;;;;22.97;49.92;103072.75;4983087;28;20041;-47
2021/08/24 09:55:27;;;;;;;7.47;2.45;;;;;;;23.28;48.49;103077.06;4980968;28;20025;-51
2021/08/24 09:57:56;;;;;;;4.78;2.40;;;;;;;23.25;49.74;103070.84;4983553;28;20022;-49
2021/08/24 10:00:25;;;;;;;5.35;2.15;;;;;;;23.57;49.28;103071.63;4986514;28;20482;-48
2021/08/24 10:02:52;;;;;;;6.05;2.20;;;;;;;23.46;48.53;103068.09;4979220;28;20034;-52
2021/08/24 10:05:21;;;;;;;6.32;2.33;;;;;;;23.54;48.40;103055.69;4976787;28;20384;-48
2021/08/24 10:07:50;;;;;;;8.02;2.78;;;;;;;22.77;49.69;103063.94;4983028;28;20026;-48
2021/08/24 10:10:33;;;;;;;5.93;2.70;;;;;;;22.53;49.90;103056.88;4995271;28;20037;-48
2021/08/24 10:13:02;;;;;;;4.25;2.30;;;;;;;22.94;49.86;103059.44;4980311;28;20153;-50
2021/08/24 10:15:34;;;;;;;2.97;1.95;;;;;;;23.55;49.95;103052.09;4982628;28;20018;-48
2021/08/24 10:18:35;;;;;;;6.63;2.17;;;;;;;23.46;47.74;103054.78;4980635;28;20128;-47
2021/08/24 10:21:09;;;;;;;7.53;2.85;;;;;;;23.68;48.01;103059.13;4969824;28;20038;-49
2021/08/24 10:23:49;;;;;;;;;;;;;;;23.92;47.48;103046.50;4974388;28;20054;-48
2021/08/24 10:26:27;;;;;;;5.60;2.20;;;;;;;23.25;47.08;103053.13;4987841;28;19916;-45
2021/08/24 10:28:54;;;;;;;5.90;2.20;;;;;;;;;;4982843;28;20026;-47
2021/08/24 10:31:37;;;;;;;5.25;2.58;;;;;;;23.14;48.57;103051.41;4982348;28;20081;-47
2021/08/24 10:34:34;;;;;;;12.75;2.40;;;;;;;23.74;47.78;103045.75;4978620;28;20593;-50
2021/08/24 10:37:24;;;;;;;4.30;2.60;;;;;;;23.91;48.33;103040.28;4982973;28;20550;-52
2021/08/24 10:39:52;;;;;;;5.15;2.30;;;;;;;;;;4992375;28;20038;-49
2021/08/24 10:42:25;;;;;;;5.30;2.15;;;;;;;23.79;46.29;103041.28;4983248;28;20050;-50
2021/08/24 10:44:56;;;;;;;4.90;2.40;;;;;;;23.45;46.75;103037.03;4985298;28;20057;-48
2021/08/24 10:47:28;;;;;;;5.10;2.40;;;;;;;23.54;47.16;103037.03;4985327;28;20541;-47
2021/08/24 10:49:56;;;;;;;5.13;2.58;;;;;;;23.16;48.53;103028.34;4983752;28;20388;-47
2021/08/24 10:52:43;;;;;;;5.65;2.60;;;;;;;23.16;48.99;103033.66;4986482;28;20033;-46
2021/08/24 10:55:22;;;;;;;5.43;2.90;;;;;;;23.36;47.95;103037.13;4990568;28;20506;-49
2021/08/24 10:58:06;;;;;;;7.53;2.65;;;;;;;23.28;48.91;103029.16;5000372;28;20288;-47
2021/08/24 11:00:56;;;;;;;6.40;2.80;;;;;;;23.59;48.25;103021.03;4984579;28;20079;-47
2021/08/24 11:03:52;;;;;;;5.18;2.95;;;;;;;23.77;47.64;103027.09;4979790;28;20096;-48
2021/08/24 11:06:52;;;;;;;7.75;2.50;;;;;;;23.81;47.36;103025.28;4987554;28;20030;-46
2021/08/24 11:09:19;;;;;;;5.13;2.60;;;;;;;23.53;46.45;103024.63;4982598;28;20046;-46
2021/08/24 11:11:48;;;;;;;5.53;2.40;;;;;;;23.53;47.78;103029.94;5000690;28;20022;-48
2021/08/24 11:14:38;;;;;;;4.45;2.50;;;;;;;23.50;46.63;103026.41;4990332;28;20153;-50
2021/08/24 11:17:27;;;;;;;6.55;2.88;;;;;;;23.57;47.37;103015.69;4980899;28;20537;-46
2021/08/24 11:20:15;;;;;;;6.15;2.30;;;;;;;24.06;46.98;103018.00;4984228;28;20517;-48
2021/08/24 11:23:05;;;;;;;5.63;2.70;;;;;;;24.13;45.39;103009.94;4980805;28;20751;-47
2021/08/24 11:25:46;;;;;;;5.40;2.85;;;;;;;23.66;47.16;103010.31;4984908;28;20084;-48
2021/08/24 11:28:34;;;;;;;5.53;2.75;;;;;;;24.36;47.91;103007.06;4980437;28;20068;-47
2021/08/24 11:31:07;;;;;;;4.45;2.58;;;;;;;24.03;45.32;103002.91;4980503;28;20088;-49
2021/08/24 11:33:38;;;;;;;5.57;2.40;;;;;;;24.48;48.07;103004.28;4985478;28;21173;-47
2021/08/24 11:36:26;;;;;;;5.22;2.60;;;;;;;24.14;46.52;103009.03;4988463;28;20044;-48